Carver, MN

12:24 AM CDT on May 28, 2017 (GMT -0500)
| | Change Station
Active Advisory: Flood Warning

Elev -9999 ft 0.00 °N, 0.00 °E | Updated 0 second ago

Partly Cloudy
Partly Cloudy
°F
Feels Like °F
N
Wind Variable Wind from North
Gusts mph

Today
High -- | Low -- °F
--% Chance of Precip.
Yesterday
High -- | Low -- °F
Precip. -- in
Pressure 29.80 in
Visibility 10.0 miles
Clouds Few 8500 ft
Scattered Clouds 11000 ft
Dew Point Not available.
Humidity Not available.
Rainfall --
Snow Depth Not available.
5:34 AM 8:50 PM
Waxing Crescent, 9% visible
METAR KFCM 280453Z AUTO 21006KT 10SM FEW085 SCT110 17/09 A2980 RMK AO2 SLP089 T01720094
Pressure 29.80 in
Visibility 10.0 miles
Clouds Few 8500 ft
Scattered Clouds 11000 ft
Dew Point Not available.
Humidity Not available.
Rainfall --
Snow Depth Not available.
5:34 AM 8:50 PM
Waxing Crescent, 9% visible
METAR KFCM 280453Z AUTO 21006KT 10SM FEW085 SCT110 17/09 A2980 RMK AO2 SLP089 T01720094

Get Your Daily Forecast Email!

Thanks for signing up!

Be on the lookout for a verification email in your inbox.

You'll start receiving severe weather alerts in your inbox..

×

10-Day Weather Forecast

Almanac

Astronomy

May. 28, 2017 Rise Set
Actual Time
Civil Twilight
Nautical Twilight
Astronomical Twilight
Moon
Length of Visible Light
Length of Day
Tomorrow will be .
, % of the Moon is Illuminated

Today's Extremes

State Highs State Lows

Community

WunderPhotos

Category 6

Welcome to Category 6. This is the collective home for Weather Underground's featured writeups by Dr. Jeff Masters (right), Bob Henson (left), Chris Burt, and other regular contributors.

Nearby

Air Quality

  Air Quality AQ Index Pollutant
Not available.

Snow Depth

Station Depth Elevation

Earthquake Activity

City Distance Mag. Time & Date
Minimum magnitude displayed is 2.5.

Coastal Water Temperatures

Place Temperature

Stations

Nearby Weather Stations

Station Location Temp. Windchill Dew Point Humidity Wind Precip. Elev Updated Type
                   

Watches & Warnings

Flood Warning
Issued: 7:57 PM CDT May. 27, 2017 – National Weather Service

... Flood Warning now expected to end Sunday afternoon... the Flood
Warning continues for
the South Fork Crow River below Mayer.
* Until Sunday evening.
* At 7:30 PM Saturday the stage was 11.2 feet.
* Minor flooding is occurring and minor flooding is forecast.
* Flood stage is 11.0 feet.
* Forecast... the river will continue to fall to below flood stage by
tomorrow afternoon.
* Impact... at 11.0 feet... Carver County Road 123 is closed north of
Highway 7 to 42nd street.


Lat... Lon 4498 9390 4498 9377 4483 9390 4486 9399

Eta